LEVD/VLL METAR and TAF weather

Enter ICAO airport designator
Station Type Date Time Source
LEVD METAR 2019/05/19 19:30 UTC NOAA

LEVD 191930Z 34003KT CAVOK 14/M02 Q1012


Station Type Date Time Source
LEVD Decoded METAR 2019/05/19 19:30 UTC NOAA

Valladolid / Villanubla, Spain (LEVD) 41-43N 004-51W 846M
May 19, 2019 - 03:30 PM EDT / 2019.05.19 1930 UTC
Wind: from the NNW (340 degrees) at 3 MPH (3 KT):0
Visibility: greater than 7 mile(s):0
Temperature: 57 F (14 C)
Dew Point: 28 F (-2 C)
Relative Humidity: 33%
Pressure (altimeter): 29.88 in. Hg (1012 hPa)
ob: LEVD 191930Z 34003KT CAVOK 14/M02 Q1012
cycle: 19

Station Type Date Time Source
LEVD TAF 2019/05/19 18:27 UTC NOAA

TAF LEVD 191700Z 1918/2018 28007KT CAVOK TX20/2016Z TN03/2005Z
BECMG 1918/1920 06010KT
TEMPO 1920/1924 06015G25KT
BECMG 2008/2010 VRB05KT

Example: see airport list